Time;durP1;ratioP1;P1;durP2;ratioP2;P2;SDS_P1;SDS_P2;PMS_P1;PMS_P2;Temp;Humidity;BMP_temperature;BMP_pressure;BME280_temperature;BME280_humidity;BME280_pressure;Samples;Min_cycle;Max_cycle;Signal;HPM_P1;HPM_P2
2021/12/18 00:00:40;;;;;;;8.43;7.53;;;;;;;2.29;76.16;94912.05;1708988;83;21054;-57
2021/12/18 00:03:07;;;;;;;12.37;8.45;;;;;;;2.31;76.64;94915.73;1708972;83;21089;-57
2021/12/18 00:05:34;;;;;;;11.93;9.55;;;;;;;2.32;76.61;94923.47;1708972;84;20975;-57
2021/12/18 00:08:03;;;;;;;21.05;13.13;;;;;;;2.32;76.68;94920.00;1709076;84;21141;-57
2021/12/18 00:10:29;;;;;;;32.73;16.55;;;;;;;2.37;77.18;94933.17;1709403;84;21023;-55
2021/12/18 00:12:58;;;;;;;25.92;15.32;;;;;;;2.46;77.17;94924.81;1709103;84;21019;-56
2021/12/18 00:15:26;;;;;;;23.60;13.32;;;;;;;2.48;76.87;94931.98;1709294;84;21026;-57
2021/12/18 00:17:53;;;;;;;21.97;13.45;;;;;;;2.49;77.17;94943.63;1709166;84;21438;-57
2021/12/18 00:20:19;;;;;;;18.67;12.15;;;;;;;2.50;76.91;94937.03;1709107;84;21140;-56
2021/12/18 00:22:46;;;;;;;11.73;10.40;;;;;;;2.44;77.04;94938.58;1709121;84;21570;-56
2021/12/18 00:25:13;;;;;;;10.50;8.98;;;;;;;2.37;76.97;94944.03;1709110;84;21450;-57
2021/12/18 00:27:41;;;;;;;13.68;9.60;;;;;;;2.32;77.16;94941.71;1709171;84;21529;-57
2021/12/18 00:30:09;;;;;;;12.28;10.20;;;;;;;2.31;77.67;94945.59;1709233;84;21537;-56
2021/12/18 00:32:38;;;;;;;17.67;12.00;;;;;;;2.35;77.38;94944.41;1709172;84;21805;-56
2021/12/18 00:35:06;;;;;;;14.10;10.82;;;;;;;2.24;77.16;94942.30;1704820;83;20990;-56
2021/12/18 00:37:33;;;;;;;12.47;9.43;;;;;;;2.16;77.71;94950.83;1709120;84;20967;-57
2021/12/18 00:40:05;;;;;;;15.08;10.15;;;;;;;2.18;78.05;94959.36;1709054;84;21061;-56
2021/12/18 00:42:42;;;;;;;14.78;11.68;;;;;;;2.23;78.21;94963.81;1708863;83;21046;-56
2021/12/18 00:45:12;;;;;;;19.75;12.47;;;;;;;2.32;78.19;94963.42;1708613;83;21083;-56
2021/12/18 00:47:39;;;;;;;16.45;12.43;;;;;;;2.37;77.75;94964.38;1712179;83;20974;-57
2021/12/18 00:50:09;;;;;;;23.10;14.45;;;;;;;2.31;77.73;94965.36;1722382;83;20974;-57
2021/12/18 00:52:36;;;;;;;23.42;14.85;;;;;;;2.27;77.81;94986.30;1722265;82;21016;-56
2021/12/18 00:55:06;;;;;;;17.20;12.03;;;;;;;2.19;78.04;94973.91;1722588;83;21445;-57
2021/12/18 00:57:33;;;;;;;8.45;6.85;;;;;;;2.16;77.36;94977.38;1722317;83;21131;-57
2021/12/18 01:00:02;;;;;;;18.55;11.50;;;;;;;2.11;76.38;94974.30;1722313;83;21068;-57
2021/12/18 01:02:29;;;;;;;9.08;6.70;;;;;;;2.03;76.07;94982.22;1722458;83;21069;-56
2021/12/18 01:04:59;;;;;;;15.00;8.85;;;;;;;1.93;75.48;94985.72;1722355;83;20989;-57
2021/12/18 01:07:26;;;;;;;6.67;6.00;;;;;;;1.94;75.60;94992.09;1722530;83;21529;-56
2021/12/18 01:12:37;;;;;;;4.58;4.20;;;;;;;2.08;74.96;94994.03;1722273;83;21548;-56
2021/12/18 01:15:16;;;;;;;4.63;4.30;;;;;;;2.11;74.49;94991.93;1721674;83;21081;-57
2021/12/18 01:22:52;;;;;;;4.35;4.08;;;;;;;2.22;72.82;94981.84;1722410;82;21159;-56
2021/12/18 01:25:21;;;;;;;4.40;4.15;;;;;;;2.14;72.33;94987.08;1722327;83;21010;-56
2021/12/18 01:27:49;;;;;;;4.40;4.10;;;;;;;2.14;72.17;95000.05;1722286;82;21509;-57
2021/12/18 01:30:17;;;;;;;5.22;4.72;;;;;;;2.12;70.81;94991.53;1722416;83;21548;-56
2021/12/18 01:32:44;;;;;;;172.22;94.05;;;;;;;2.12;71.17;95000.27;1722400;83;21029;-57
2021/12/18 01:35:11;;;;;;;27.42;17.32;;;;;;;2.18;71.15;95004.13;1722262;83;21098;-58
2021/12/18 01:37:40;;;;;;;5.67;5.28;;;;;;;2.27;70.70;95015.36;1722307;83;20969;-56
2021/12/18 01:40:11;;;;;;;12.30;8.28;;;;;;;2.28;69.64;95016.91;1722563;83;21548;-57
2021/12/18 01:43:29;;;;;;;7.12;5.72;;;;;;;2.23;69.67;95015.38;1722342;82;21065;-56
2021/12/18 01:53:30;;;;;;;5.12;4.62;;;;;;;2.34;70.68;95013.42;1722370;83;21077;-56
2021/12/18 01:55:56;;;;;;;6.35;5.70;;;;;;;2.44;69.52;95011.31;1722355;83;21465;-57
2021/12/18 01:58:25;;;;;;;9.88;7.58;;;;;;;2.44;69.62;95015.38;1722401;83;21453;-56
2021/12/18 02:00:55;;;;;;;9.38;6.78;;;;;;;2.46;69.72;95022.55;1722170;83;21177;-56
2021/12/18 02:03:23;;;;;;;5.90;5.28;;;;;;;2.40;69.84;95005.68;1722389;83;21442;-57
2021/12/18 02:05:51;;;;;;;5.15;4.75;;;;;;;2.41;69.62;95003.16;1721784;83;20982;-56
2021/12/18 02:08:23;;;;;;;4.67;4.28;;;;;;;2.38;70.00;95005.30;1722308;83;21049;-56
2021/12/18 02:10:58;;;;;;;4.10;3.90;;;;;;;2.46;70.53;95005.47;1722413;83;21049;-55
2021/12/18 02:21:28;;;;;;;8.75;7.22;;;;;;;2.50;70.24;95012.45;1697009;83;21419;-57
2021/12/18 02:23:57;;;;;;;5.80;5.20;;;;;;;2.58;70.47;95009.16;1722746;83;20959;-56
2021/12/18 02:26:24;;;;;;;4.55;4.25;;;;;;;2.57;70.77;95010.32;1722278;83;21209;-57
2021/12/18 02:28:53;;;;;;;5.92;5.50;;;;;;;2.50;71.32;95006.27;1722283;83;21014;-57
2021/12/18 02:31:19;;;;;;;4.70;4.40;;;;;;;2.45;71.52;95010.70;1722381;83;21505;-57
2021/12/18 02:33:46;;;;;;;5.80;5.30;;;;;;;2.49;71.96;95014.98;1722441;83;21461;-57
2021/12/18 02:36:22;;;;;;;5.60;5.05;;;;;;;2.49;71.88;95014.98;1722263;83;20978;-57
2021/12/18 02:41:30;;;;;;;8.28;6.90;;;;;;;2.49;72.45;95031.27;1722178;82;21010;-56
2021/12/18 02:43:51;;;;;;;12.90;9.45;;;;;;;2.57;72.79;95023.90;1721428;83;20986;-57
2021/12/18 02:46:20;;;;;;;12.37;8.20;;;;;;;2.66;72.91;95033.80;1722282;83;21026;-57
2021/12/18 02:48:49;;;;;;;13.58;8.98;;;;;;;2.78;72.79;95035.52;1722257;82;21037;-60
2021/12/18 02:51:16;;;;;;;12.60;9.10;;;;;;;2.83;72.46;95037.08;1722436;83;21882;-57
2021/12/18 02:53:46;;;;;;;10.32;8.10;;;;;;;2.80;72.68;95037.83;1722412;82;21066;-57
2021/12/18 02:56:14;;;;;;;8.58;7.10;;;;;;;2.84;72.94;95038.63;1722423;83;21450;-57
2021/12/18 02:58:46;;;;;;;5.87;5.42;;;;;;;2.87;72.71;95038.60;1722221;83;20970;-57
2021/12/18 03:01:18;;;;;;;8.50;6.05;;;;;;;2.84;73.00;95045.42;1722253;82;20970;-56
2021/12/18 03:03:45;;;;;;;9.40;8.40;;;;;;;2.91;73.10;95058.38;1722692;82;21067;-57
2021/12/18 03:06:32;;;;;;;11.00;8.48;;;;;;;3.00;72.61;95056.63;1722280;82;20974;-56
2021/12/18 03:20:42;;;;;;;25.48;18.62;;;;;;;2.52;74.30;95080.72;1722242;83;20978;-56
2021/12/18 03:25:30;;;;;;;8.28;7.55;;;;;;;2.34;74.86;95066.36;1722409;83;21017;-57
2021/12/18 03:27:42;;;;;;;9.40;8.50;;;;;;;2.20;75.49;95064.22;1717360;83;21010;-57
2021/12/18 03:30:10;;;;;;;10.60;9.53;;;;;;;2.08;75.96;95078.94;1722315;82;21150;-56
2021/12/18 03:32:40;;;;;;;10.72;9.63;;;;;;;1.96;76.34;95071.75;1722381;83;21069;-56
2021/12/18 03:35:08;;;;;;;9.00;7.25;;;;;;;1.78;76.91;95069.56;1722352;83;21596;-57
2021/12/18 03:37:36;;;;;;;15.75;12.80;;;;;;;1.67;77.56;95067.39;1722567;83;20967;-57
2021/12/18 03:40:07;;;;;;;8.95;8.13;;;;;;;1.67;77.83;95068.75;1722164;83;20982;-57
2021/12/18 03:42:36;;;;;;;7.42;6.72;;;;;;;1.70;77.79;95049.00;1722639;82;21122;-57
2021/12/18 03:45:04;;;;;;;7.08;6.37;;;;;;;1.80;77.15;95072.67;1722229;83;20995;-57
2021/12/18 03:47:32;;;;;;;6.47;5.87;;;;;;;1.91;76.58;95067.47;1722093;83;21459;-56
2021/12/18 03:49:58;;;;;;;12.70;6.17;;;;;;;1.96;75.69;95071.75;1710936;83;20998;-58
2021/12/18 03:52:25;;;;;;;6.47;5.87;;;;;;;1.98;75.03;95059.92;1708999;84;21495;-56
2021/12/18 03:54:54;;;;;;;6.85;5.80;;;;;;;2.02;74.77;95062.06;1708866;84;21063;-56
2021/12/18 03:57:21;;;;;;;8.30;7.50;;;;;;;2.12;74.55;95070.81;1708656;83;20967;-57
2021/12/18 03:59:50;;;;;;;6.80;6.08;;;;;;;2.15;73.32;95071.39;1708941;84;21502;-56
2021/12/18 04:02:16;;;;;;;5.47;4.97;;;;;;;2.15;72.93;95083.60;1708953;83;21767;-57
2021/12/18 04:04:43;;;;;;;5.10;4.58;;;;;;;2.13;72.68;95092.72;1708999;84;21014;-56
2021/12/18 04:07:09;;;;;;;5.35;4.95;;;;;;;2.17;72.56;95092.13;1709195;84;21096;-57
2021/12/18 04:09:37;;;;;;;8.48;6.72;;;;;;;2.20;71.59;95096.22;1708917;84;20997;-57
2021/12/18 04:12:06;;;;;;;5.90;5.40;;;;;;;2.16;71.46;95099.48;1709232;82;21014;-57
2021/12/18 04:14:33;;;;;;;9.60;7.05;;;;;;;2.18;71.25;95105.30;1708850;84;21438;-57
2021/12/18 04:17:03;;;;;;;6.35;5.75;;;;;;;2.18;70.53;95105.90;1709235;84;21509;-57
2021/12/18 04:19:32;;;;;;;6.67;6.07;;;;;;;2.08;70.90;95121.55;1709151;83;20923;-57
2021/12/18 04:21:58;;;;;;;6.90;6.20;;;;;;;2.08;70.90;95121.55;1709152;84;21075;-58
2021/12/18 04:24:25;;;;;;;7.55;6.40;;;;;;;2.05;70.86;95123.69;1708946;84;21037;-57
2021/12/18 04:26:53;;;;;;;9.65;5.92;;;;;;;2.05;71.17;95131.83;1709031;84;21434;-57
2021/12/18 04:29:19;;;;;;;5.90;5.35;;;;;;;2.09;70.58;95120.39;1708864;84;21030;-57
2021/12/18 04:31:49;;;;;;;6.05;5.55;;;;;;;2.11;70.03;95124.29;1709226;83;21112;-57
2021/12/18 04:34:15;;;;;;;5.33;4.90;;;;;;;2.09;69.96;95136.67;1708881;84;20961;-56
2021/12/18 04:36:42;;;;;;;5.10;4.40;;;;;;;2.04;69.55;95135.70;1708959;84;20966;-56
2021/12/18 04:39:13;;;;;;;5.08;4.67;;;;;;;2.10;69.49;95127.41;1708938;84;21003;-57
2021/12/18 04:41:49;;;;;;;4.75;4.35;;;;;;;2.11;69.79;95137.09;1708867;83;21010;-56
2021/12/18 04:44:08;;;;;;;5.20;4.80;;;;;;;2.10;69.91;95154.54;1707010;83;21160;-56
2021/12/18 04:46:37;;;;;;;4.50;4.20;;;;;;;2.10;70.38;95146.40;1708926;84;21435;-58
2021/12/18 04:49:07;;;;;;;4.83;4.45;;;;;;;2.10;70.29;95149.11;1713163;83;21450;-57
2021/12/18 04:51:34;;;;;;;4.37;4.10;;;;;;;2.08;69.47;95156.27;1722377;83;21426;-57
2021/12/18 04:54:03;;;;;;;4.70;4.30;;;;;;;2.05;70.03;95159.75;1722409;83;21081;-57
2021/12/18 04:56:33;;;;;;;4.60;4.30;;;;;;;2.02;69.94;95164.59;1722412;83;21180;-57
2021/12/18 04:59:02;;;;;;;5.53;5.03;;;;;;;1.99;70.01;95167.28;1722151;83;21022;-56
2021/12/18 05:01:36;;;;;;;4.78;4.17;;;;;;;1.97;69.95;95150.61;1722491;83;21022;-56
2021/12/18 05:03:59;;;;;;;4.28;4.08;;;;;;;1.89;70.24;95176.14;1721829;82;21022;-56
2021/12/18 05:06:29;;;;;;;7.53;6.33;;;;;;;1.89;69.79;95168.79;1722307;83;20978;-57
2021/12/18 05:08:55;;;;;;;8.38;5.12;;;;;;;1.96;68.55;95176.19;1722245;83;21138;-57
2021/12/18 05:11:22;;;;;;;5.00;4.60;;;;;;;1.99;68.28;95182.20;1722317;83;20966;-57
2021/12/18 05:13:49;;;;;;;4.20;3.90;;;;;;;2.02;68.74;95182.79;1722279;83;21060;-58
2021/12/18 05:16:16;;;;;;;6.83;6.12;;;;;;;2.08;67.95;95173.11;1722379;83;21030;-57
2021/12/18 05:18:44;;;;;;;4.95;4.58;;;;;;;2.05;68.02;95183.37;1722404;83;21498;-56
2021/12/18 05:21:15;;;;;;;5.00;4.58;;;;;;;1.95;67.21;95188.20;1722048;83;21167;-56
2021/12/18 05:23:43;;;;;;;4.10;3.80;;;;;;;1.95;67.56;95193.03;1722437;83;20954;-56
2021/12/18 05:26:15;;;;;;;3.80;3.60;;;;;;;1.96;67.71;95187.04;1722451;83;21041;-57
2021/12/18 05:28:44;;;;;;;4.20;4.00;;;;;;;1.96;67.87;95201.36;1722305;82;20994;-59
2021/12/18 05:31:16;;;;;;;4.40;4.10;;;;;;;1.98;67.65;95193.62;1722625;83;21098;-57
2021/12/18 05:33:41;;;;;;;4.62;4.22;;;;;;;2.00;67.51;95191.89;1722194;83;21171;-59
2021/12/18 05:36:29;;;;;;;4.15;3.90;;;;;;;1.97;67.79;95202.91;1722262;83;21073;-56
2021/12/18 05:38:38;;;;;;;5.75;5.30;;;;;;;1.95;67.83;95200.41;1718568;83;21140;-57
2021/12/18 05:41:04;;;;;;;5.08;4.70;;;;;;;1.93;68.30;95202.73;1722369;83;20978;-56
2021/12/18 05:43:33;;;;;;;4.53;4.15;;;;;;;1.92;68.28;95212.02;1722406;83;21573;-57
2021/12/18 05:46:02;;;;;;;11.33;10.05;;;;;;;1.93;68.92;95212.22;1722337;83;21267;-57
2021/12/18 05:48:31;;;;;;;8.03;7.28;;;;;;;2.01;68.98;95220.01;1722145;83;21537;-55
2021/12/18 05:50:57;;;;;;;10.90;8.38;;;;;;;2.03;69.08;95220.97;1709153;82;21572;-58
2021/12/18 05:53:24;;;;;;;12.28;9.10;;;;;;;2.08;69.45;95223.30;1709038;84;21034;-57
2021/12/18 05:55:53;;;;;;;12.18;9.13;;;;;;;2.18;69.61;95232.09;1709086;83;21082;-57
2021/12/18 05:58:21;;;;;;;12.78;10.78;;;;;;;2.23;69.97;95241.20;1708978;82;22396;-58
2021/12/18 06:00:47;;;;;;;12.43;9.88;;;;;;;2.28;70.63;95246.27;1708922;84;21061;-57
2021/12/18 06:03:16;;;;;;;16.10;12.53;;;;;;;2.35;70.63;95250.38;1709111;83;21185;-57
2021/12/18 06:05:46;;;;;;;17.95;16.05;;;;;;;2.36;71.10;95249.98;1708406;83;20987;-56
2021/12/18 06:08:14;;;;;;;21.73;14.15;;;;;;;2.38;71.25;95251.76;1708937;84;20999;-56
2021/12/18 06:10:44;;;;;;;21.95;17.30;;;;;;;2.44;71.25;95250.78;1709023;84;21463;-57
2021/12/18 06:13:11;;;;;;;19.20;13.40;;;;;;;2.40;71.22;95254.07;1708511;83;21556;-57
2021/12/18 06:15:38;;;;;;;18.70;13.53;;;;;;;2.33;71.46;95252.70;1709074;84;21148;-57
2021/12/18 06:18:05;;;;;;;20.05;14.70;;;;;;;2.29;71.54;95239.11;1708917;84;20978;-57
2021/12/18 06:20:32;;;;;;;23.07;14.65;;;;;;;2.24;71.91;95244.91;1688837;84;20966;-57
2021/12/18 06:22:59;;;;;;;25.57;18.32;;;;;;;2.27;72.15;95256.92;1708909;84;21510;-57
2021/12/18 06:25:26;;;;;;;29.65;19.70;;;;;;;2.19;72.29;95239.86;1708940;84;21007;-57
2021/12/18 06:27:55;;;;;;;30.92;19.95;;;;;;;2.15;72.41;95242.35;1708832;83;21006;-57
2021/12/18 06:30:21;;;;;;;25.48;18.35;;;;;;;2.13;72.81;95262.31;1709110;84;21070;-57
2021/12/18 06:32:48;;;;;;;21.40;15.90;;;;;;;2.08;72.95;95251.23;1709001;82;21022;-57
2021/12/18 06:35:15;;;;;;;29.35;19.73;;;;;;;2.14;73.35;95258.44;1709015;84;21780;-58
2021/12/18 06:37:43;;;;;;;37.25;24.05;;;;;;;2.29;73.36;95268.97;1708914;84;21030;-56
2021/12/18 06:40:11;;;;;;;29.48;23.25;;;;;;;2.36;72.87;95269.58;1708499;83;21482;-57
2021/12/18 06:42:40;;;;;;;25.45;19.12;;;;;;;2.36;73.07;95274.41;1708926;83;21069;-57
2021/12/18 06:45:08;;;;;;;29.15;21.50;;;;;;;2.42;73.12;95277.54;1708534;83;20967;-57
2021/12/18 06:47:36;;;;;;;26.62;19.00;;;;;;;2.58;72.85;95273.92;1708917;84;21154;-58
2021/12/18 06:50:05;;;;;;;30.57;21.40;;;;;;;2.67;72.72;95281.14;1708756;83;21010;-57
2021/12/18 06:52:34;;;;;;;28.10;19.32;;;;;;;2.75;72.27;95282.70;1708960;84;21497;-57
2021/12/18 06:55:02;;;;;;;39.90;25.92;;;;;;;2.67;72.18;95287.33;1708961;83;21485;-57
2021/12/18 06:57:29;;;;;;;41.30;26.25;;;;;;;2.58;71.90;95288.85;1708924;84;21026;-60
2021/12/18 06:59:57;;;;;;;34.60;23.00;;;;;;;2.51;72.41;95291.55;1708953;84;21125;-58
2021/12/18 07:02:24;;;;;;;42.53;27.67;;;;;;;2.53;72.19;95300.09;1708791;84;20978;-58
2021/12/18 07:04:54;;;;;;;38.42;26.02;;;;;;;2.51;72.66;95305.89;1708915;84;21026;-58
2021/12/18 07:07:21;;;;;;;48.28;30.32;;;;;;;2.61;72.62;95312.53;1708931;84;21530;-58
2021/12/18 07:09:48;;;;;;;45.95;28.57;;;;;;;2.69;72.41;95308.69;1708995;84;21567;-57
2021/12/18 07:12:15;;;;;;;60.28;38.20;;;;;;;2.78;72.21;95308.53;1708930;82;21832;-57
2021/12/18 07:14:42;;;;;;;48.98;36.38;;;;;;;2.77;72.01;95303.47;1709074;84;21554;-58
2021/12/18 07:17:09;;;;;;;57.62;38.05;;;;;;;2.69;71.98;95305.98;1708898;83;21011;-58
2021/12/18 07:19:36;;;;;;;41.40;28.90;;;;;;;2.67;72.26;95309.66;1708858;84;20974;-57
2021/12/18 07:22:03;;;;;;;40.10;25.52;;;;;;;2.70;72.27;95310.25;1708894;84;21010;-58
2021/12/18 07:24:31;;;;;;;47.88;29.82;;;;;;;2.71;72.32;95307.13;1709255;84;21309;-57
2021/12/18 07:27:01;;;;;;;74.42;57.40;;;;;;;2.85;71.93;95313.20;1708810;84;21042;-57
2021/12/18 07:29:27;;;;;;;59.40;39.60;;;;;;;2.97;71.27;95313.63;1707880;84;21033;-58
2021/12/18 07:31:54;;;;;;;80.47;48.30;;;;;;;2.95;70.85;95316.52;1709116;82;21443;-58
2021/12/18 07:34:22;;;;;;;133.55;76.80;;;;;;;2.82;71.01;95322.10;1709424;84;21014;-59
2021/12/18 07:36:49;;;;;;;88.25;53.80;;;;;;;2.72;71.72;95324.22;1708824;82;21112;-57
2021/12/18 07:39:17;;;;;;;58.60;34.90;;;;;;;2.75;72.18;95331.03;1688787;84;20967;-60
2021/12/18 07:41:52;;;;;;;43.52;31.00;;;;;;;2.80;72.02;95329.30;1709442;84;21113;-60
2021/12/18 07:44:21;;;;;;;46.95;31.30;;;;;;;2.87;72.12;95332.02;1708753;83;21034;-58
2021/12/18 07:46:48;;;;;;;62.85;39.33;;;;;;;3.01;72.17;95336.71;1708930;84;21077;-57
2021/12/18 07:49:14;;;;;;;66.53;42.67;;;;;;;3.15;71.60;95335.39;1709098;83;21092;-58
2021/12/18 07:51:43;;;;;;;53.68;35.78;;;;;;;3.27;71.22;95332.31;1722194;82;21465;-57
2021/12/18 07:54:09;;;;;;;51.00;33.98;;;;;;;3.30;70.48;95331.55;1721725;83;21022;-60
2021/12/18 07:56:38;;;;;;;68.45;43.40;;;;;;;3.22;70.41;95332.70;1722342;83;21446;-60
2021/12/18 07:59:07;;;;;;;115.80;65.85;;;;;;;3.18;70.49;95334.05;1695448;83;21030;-58
2021/12/18 08:01:35;;;;;;;244.50;110.15;;;;;;;3.30;70.50;95338.34;1694522;83;21132;-58
2021/12/18 08:04:04;;;;;;;292.05;135.40;;;;;;;3.31;70.27;95335.25;1720730;83;21597;-57
2021/12/18 08:06:31;;;;;;;206.47;95.85;;;;;;;3.32;70.47;95341.45;1721487;83;21010;-58
2021/12/18 08:08:58;;;;;;;152.68;72.30;;;;;;;3.33;69.98;95343.00;1722145;83;21077;-57
2021/12/18 08:11:26;;;;;;;295.20;139.15;;;;;;;3.29;69.13;95347.66;1722180;83;20906;-58
2021/12/18 08:13:54;;;;;;;130.95;66.55;;;;;;;3.33;69.58;95355.23;1722147;83;21146;-59
2021/12/18 08:16:21;;;;;;;143.93;84.28;;;;;;;3.33;69.68;95349.23;1722164;83;21530;-58
2021/12/18 08:18:49;;;;;;;107.85;62.88;;;;;;;3.30;69.70;95345.93;1722086;83;20986;-56
2021/12/18 08:21:18;;;;;;;88.35;49.90;;;;;;;3.28;68.78;95348.83;1722171;83;20962;-58
2021/12/18 08:23:45;;;;;;;84.85;49.35;;;;;;;3.36;68.57;95349.02;1722232;83;21429;-59
2021/12/18 08:26:12;;;;;;;95.15;55.85;;;;;;;3.53;68.45;95345.73;1722180;82;21201;-58
2021/12/18 08:28:42;;;;;;;61.77;38.20;;;;;;;3.60;68.35;95344.97;1722153;82;21061;-58
2021/12/18 08:31:08;;;;;;;65.25;37.65;;;;;;;3.65;67.97;95345.38;1721348;83;21077;-59
2021/12/18 08:33:36;;;;;;;51.70;33.83;;;;;;;3.63;67.05;95348.27;1695888;83;21025;-58
2021/12/18 08:36:04;;;;;;;47.05;29.52;;;;;;;3.58;66.77;95345.38;1722353;83;21023;-57
2021/12/18 08:38:31;;;;;;;35.85;23.22;;;;;;;3.61;66.71;95339.16;1722204;83;21143;-58
2021/12/18 08:41:00;;;;;;;42.20;24.67;;;;;;;3.71;66.22;95338.97;1722244;83;21061;-57
2021/12/18 08:43:27;;;;;;;46.37;27.07;;;;;;;3.78;65.75;95346.55;1722253;83;21088;-58
2021/12/18 08:45:56;;;;;;;104.67;57.85;;;;;;;3.74;65.50;95353.94;1722423;83;20981;-58
2021/12/18 08:48:23;;;;;;;91.30;50.40;;;;;;;3.66;65.28;95357.80;1722297;82;21006;-57
2021/12/18 08:50:49;;;;;;;69.97;37.48;;;;;;;3.66;65.19;95365.97;1722190;83;21110;-58
2021/12/18 08:53:18;;;;;;;82.80;41.18;;;;;;;3.67;65.20;95364.04;1722155;83;20966;-59
2021/12/18 08:55:49;;;;;;;75.32;39.45;;;;;;;3.66;65.15;95361.89;1721746;82;20978;-58
2021/12/18 08:58:17;;;;;;;53.13;27.48;;;;;;;3.63;64.96;95369.47;1722248;83;20982;-58
2021/12/18 09:00:44;;;;;;;23.90;15.93;;;;;;;3.56;64.97;95374.13;1722488;83;20977;-57
2021/12/18 09:03:11;;;;;;;17.42;13.38;;;;;;;3.53;64.56;95367.50;1722626;82;21774;-58
2021/12/18 09:05:38;;;;;;;17.07;12.82;;;;;;;3.55;64.62;95363.81;1722197;82;21049;-58
2021/12/18 09:08:05;;;;;;;16.97;11.95;;;;;;;3.59;64.23;95360.53;1722187;83;20994;-59
2021/12/18 09:10:32;;;;;;;83.05;35.43;;;;;;;3.58;63.87;95363.06;1722166;83;21055;-59
2021/12/18 09:12:59;;;;;;;49.95;24.60;;;;;;;3.51;64.09;95358.95;1722434;83;21481;-59
2021/12/18 09:15:27;;;;;;;48.00;24.18;;;;;;;3.48;64.10;95355.46;1722232;83;21296;-58
2021/12/18 09:17:55;;;;;;;39.80;22.02;;;;;;;3.48;64.21;95358.38;1722487;83;21018;-58
2021/12/18 09:20:23;;;;;;;27.60;16.67;;;;;;;3.48;63.71;95356.25;1722278;83;21010;-57
2021/12/18 09:22:50;;;;;;;19.60;12.68;;;;;;;3.46;64.19;95357.19;1722233;83;21017;-58
2021/12/18 09:25:17;;;;;;;17.20;11.55;;;;;;;3.57;64.00;95349.83;1722278;83;20989;-60
2021/12/18 09:27:44;;;;;;;24.72;14.93;;;;;;;3.60;63.74;95348.48;1695557;83;21160;-59
2021/12/18 09:30:14;;;;;;;16.87;12.15;;;;;;;3.52;63.93;95353.70;1695732;83;21022;-60
2021/12/18 09:32:43;;;;;;;17.12;12.43;;;;;;;3.53;64.03;95356.63;1722414;82;21014;-58
2021/12/18 09:35:12;;;;;;;16.97;12.15;;;;;;;3.52;64.18;95344.19;1694963;83;21034;-61
2021/12/18 09:37:39;;;;;;;20.00;14.00;;;;;;;3.48;64.30;95349.45;1722404;83;21178;-58
2021/12/18 09:40:10;;;;;;;46.80;26.57;;;;;;;3.56;64.43;95347.71;1722244;83;21217;-59
2021/12/18 09:42:38;;;;;;;38.70;23.02;;;;;;;3.58;64.82;95334.50;1722383;83;21524;-58
2021/12/18 09:45:06;;;;;;;34.70;21.30;;;;;;;3.60;64.97;95342.25;1722160;83;21470;-59
2021/12/18 09:47:36;;;;;;;31.12;18.05;;;;;;;3.61;64.70;95344.59;1722570;83;20986;-60
2021/12/18 09:50:04;;;;;;;28.27;16.93;;;;;;;3.55;64.07;95346.73;1721635;83;21121;-58
2021/12/18 09:52:31;;;;;;;18.52;12.93;;;;;;;3.43;64.23;95350.41;1722179;83;21831;-60
2021/12/18 09:54:58;;;;;;;20.32;12.95;;;;;;;3.36;63.75;95350.38;1722279;83;21064;-57
2021/12/18 09:57:24;;;;;;;11.45;9.73;;;;;;;3.32;63.64;95344.17;1722212;83;21060;-58
2021/12/18 09:59:52;;;;;;;10.32;9.30;;;;;;;3.22;62.55;95345.70;1695782;83;21572;-58
2021/12/18 10:02:18;;;;;;;19.20;12.85;;;;;;;3.17;62.79;95347.45;1722259;82;21145;-58
2021/12/18 10:04:45;;;;;;;18.00;10.88;;;;;;;3.29;63.12;95342.22;1722235;83;21827;-58
2021/12/18 10:07:21;;;;;;;23.40;13.28;;;;;;;3.35;62.71;95337.95;1722180;82;20970;-59
2021/12/18 10:09:51;;;;;;;19.52;11.03;;;;;;;3.38;63.00;95340.69;1722154;83;21592;-57
2021/12/18 10:12:21;;;;;;;17.60;11.57;;;;;;;3.45;62.93;95335.84;1696044;83;21631;-58
2021/12/18 10:15:00;;;;;;;27.37;14.58;;;;;;;3.46;63.22;95329.23;1722295;83;21624;-57
2021/12/18 10:17:36;;;;;;;36.83;18.92;;;;;;;3.55;63.57;95327.09;1722294;83;21136;-57
2021/12/18 10:20:23;;;;;;;39.67;20.75;;;;;;;3.57;63.31;95317.98;1722330;83;20997;-57
2021/12/18 10:22:55;;;;;;;52.03;26.75;;;;;;;3.70;63.05;95317.77;1722508;83;21508;-57
2021/12/18 10:25:25;;;;;;;38.23;22.48;;;;;;;3.86;62.45;95319.52;1722327;83;20982;-58
2021/12/18 10:28:08;;;;;;;21.90;14.03;;;;;;;3.94;61.80;95311.55;1722589;83;21062;-60
2021/12/18 10:30:32;;;;;;;28.90;20.92;;;;;;;3.88;60.84;95318.53;1721754;83;21161;-57
2021/12/18 10:33:08;;;;;;;32.60;22.20;;;;;;;3.83;60.49;95320.30;1722211;83;21504;-58
2021/12/18 10:35:46;;;;;;;28.73;18.67;;;;;;;3.79;60.96;95316.81;1722352;83;21457;-58
2021/12/18 10:38:54;;;;;;;28.23;15.88;;;;;;;3.87;61.00;95311.54;1722351;83;21069;-57
2021/12/18 10:41:31;;;;;;;;;;;;;;;3.95;59.49;95309.59;1723160;83;20969;-57
2021/12/18 10:44:11;;;;;;;50.35;35.30;;;;;;;4.06;56.60;95308.41;1722268;83;21178;-59
2021/12/18 10:46:43;;;;;;;26.77;19.07;;;;;;;4.04;56.41;95303.17;1722362;83;20899;-58
2021/12/18 10:49:17;;;;;;;21.05;16.12;;;;;;;4.18;57.08;95309.93;1722188;83;21005;-57
2021/12/18 10:51:46;;;;;;;18.55;13.93;;;;;;;4.27;57.64;95301.55;1713196;83;21072;-57
2021/12/18 10:54:17;;;;;;;44.58;30.05;;;;;;;4.27;57.62;95300.18;1709016;82;20970;-58
2021/12/18 10:56:47;;;;;;;87.55;46.80;;;;;;;4.31;57.75;95290.08;1709018;82;21140;-56
2021/12/18 10:59:27;;;;;;;53.92;27.75;;;;;;;4.45;58.00;95284.56;1708931;84;21471;-57
2021/12/18 11:01:56;;;;;;;75.42;33.75;;;;;;;4.57;57.77;95286.86;1708963;84;20982;-57
2021/12/18 11:04:30;;;;;;;32.80;17.65;;;;;;;4.72;56.51;95280.19;1708966;84;21442;-58
2021/12/18 11:07:22;;;;;;;44.88;23.42;;;;;;;4.75;56.03;95279.39;1708390;83;20984;-59
2021/12/18 11:15:25;;;;;;;42.03;23.18;;;;;;;4.97;55.16;95268.55;1708873;84;21462;-59
2021/12/18 11:17:54;;;;;;;31.60;21.33;;;;;;;5.09;55.01;95277.64;1708956;84;21050;-58
2021/12/18 11:20:20;;;;;;;43.98;27.10;;;;;;;5.19;54.43;95271.33;1709173;84;21574;-58
2021/12/18 11:22:49;;;;;;;99.87;45.70;;;;;;;5.19;53.98;95266.48;1709053;82;21203;-59
2021/12/18 11:25:18;;;;;;;43.17;25.70;;;;;;;5.18;53.95;95256.15;1708747;84;21062;-57
2021/12/18 11:27:48;;;;;;;37.90;24.20;;;;;;;5.22;53.39;95263.73;1708890;84;20979;-60
2021/12/18 11:30:17;;;;;;;27.90;18.87;;;;;;;5.23;53.25;95263.14;1689100;84;21042;-58
2021/12/18 11:32:54;;;;;;;45.83;30.60;;;;;;;5.16;53.20;95259.86;1709021;84;20971;-58
2021/12/18 11:35:20;;;;;;;52.73;34.45;;;;;;;5.07;53.52;95254.09;1708036;83;21162;-58
2021/12/18 11:37:51;;;;;;;33.50;20.80;;;;;;;5.04;54.03;95252.75;1708763;84;21002;-58
2021/12/18 11:40:24;;;;;;;42.90;18.37;;;;;;;5.09;54.00;95250.38;1708750;84;21210;-60
2021/12/18 11:42:51;;;;;;;25.08;12.70;;;;;;;5.10;52.70;95256.02;1708989;84;21030;-57
2021/12/18 11:45:18;;;;;;;9.85;7.90;;;;;;;5.07;53.30;95247.28;1708868;84;20986;-60
2021/12/18 11:47:56;;;;;;;11.57;8.55;;;;;;;5.07;52.18;95240.46;1708878;84;21148;-57
2021/12/18 11:50:34;;;;;;;13.55;11.15;;;;;;;5.06;52.59;95244.37;1688888;84;20967;-57
2021/12/18 11:53:08;;;;;;;11.55;9.00;;;;;;;5.01;53.25;95240.67;1708945;82;21470;-59
2021/12/18 11:55:52;;;;;;;32.10;18.65;;;;;;;5.04;53.61;95238.54;1709081;82;21431;-57
2021/12/18 11:58:28;;;;;;;27.95;18.45;;;;;;;4.99;53.83;95247.12;1708847;84;21066;-58
2021/12/18 12:01:21;;;;;;;26.30;15.03;;;;;;;4.93;54.36;95246.00;1708810;83;21159;-58
2021/12/18 12:03:57;;;;;;;;;;;;;;;4.90;54.42;95250.89;1711470;84;21616;-58
2021/12/18 12:06:37;;;;;;;35.33;21.62;;;;;;;4.79;54.43;95242.59;1709054;83;20476;-58
2021/12/18 12:09:27;;;;;;;38.70;20.32;;;;;;;4.63;54.91;95244.40;1709060;84;21019;-57
2021/12/18 12:12:04;;;;;;;50.60;22.90;;;;;;;4.56;54.88;95237.64;1709254;83;21583;-57
2021/12/18 12:14:36;;;;;;;16.97;10.82;;;;;;;4.41;55.48;95241.59;1709244;83;21862;-57
2021/12/18 12:17:21;;;;;;;13.93;9.03;;;;;;;4.30;55.85;95241.44;1708739;83;20966;-58
2021/12/18 12:19:56;;;;;;;22.80;13.03;;;;;;;4.15;56.37;95229.83;1708887;83;21006;-58
2021/12/18 12:22:38;;;;;;;21.70;12.88;;;;;;;4.00;57.15;95233.77;1708857;83;21565;-58
2021/12/18 12:25:07;;;;;;;17.80;11.73;;;;;;;4.00;57.48;95235.13;1708997;83;20978;-57
2021/12/18 12:27:38;;;;;;;16.80;11.28;;;;;;;3.96;57.60;95227.56;1709214;84;21451;-57